Time;durP1;ratioP1;P1;durP2;ratioP2;P2;SDS_P1;SDS_P2;PMS_P1;PMS_P2;Temp;Humidity;BMP_temperature;BMP_pressure;BME280_temperature;BME280_humidity;BME280_pressure;Samples;Min_cycle;Max_cycle;Signal;HPM_P1;HPM_P2
2022/10/22 00:00:55;;;;;;;6.50;1.48;;;;;;;;;;5094032;28;20414;-70
2022/10/22 00:03:22;;;;;;;5.32;1.95;;;;;;;;;;5094000;28;20032;-70
2022/10/22 00:05:48;;;;;;;8.30;1.92;;;;;;;;;;5093852;28;20016;-69
2022/10/22 00:08:14;;;;;;;6.20;2.00;;;;;;;;;;5093874;28;20387;-69
2022/10/22 00:10:41;;;;;;;2.85;1.60;;;;;;;;;;5093810;28;20031;-70
2022/10/22 00:13:07;;;;;;;4.47;1.75;;;;;;;;;;5093276;28;20040;-70
2022/10/22 00:15:34;;;;;;;9.00;2.30;;;;;;;;;;5093728;28;20036;-69
2022/10/22 00:18:00;;;;;;;7.22;1.70;;;;;;;;;;5093536;28;20032;-70
2022/10/22 00:20:26;;;;;;;6.53;1.80;;;;;;;;;;5093779;28;20032;-70
2022/10/22 00:22:52;;;;;;;4.10;1.67;;;;;;;;;;5093742;28;20400;-70
2022/10/22 00:25:19;;;;;;;6.78;1.92;;;;;;;;;;5093617;28;20024;-69
2022/10/22 00:27:45;;;;;;;2.88;1.55;;;;;;;;;;5093367;28;20028;-70
2022/10/22 00:30:11;;;;;;;13.30;1.98;;;;;;;;;;5093581;28;20024;-69
2022/10/22 00:32:38;;;;;;;4.28;2.00;;;;;;;;;;5093363;28;20031;-70
2022/10/22 00:35:05;;;;;;;8.70;2.20;;;;;;;;;;5093449;28;20034;-70
2022/10/22 00:37:31;;;;;;;6.68;1.50;;;;;;;;;;5092119;28;20077;-70
2022/10/22 00:39:57;;;;;;;9.63;1.98;;;;;;;;;;5093240;28;20514;-70
2022/10/22 00:42:25;;;;;;;3.90;1.77;;;;;;;;;;5092926;28;20019;-70
2022/10/22 00:45:04;;;;;;;5.45;1.73;;;;;;;;;;5092802;28;20038;-70
2022/10/22 00:47:45;;;;;;;5.80;1.50;;;;;;;;;;5093035;28;20396;-70
2022/10/22 00:50:33;;;;;;;3.40;1.45;;;;;;;;;;5092992;28;20024;-69
2022/10/22 00:53:00;;;;;;;5.22;1.55;;;;;;;;;;5093054;28;20024;-70
2022/10/22 00:55:27;;;;;;;4.20;1.45;;;;;;;;;;5092853;28;20476;-70
2022/10/22 00:57:54;;;;;;;3.17;1.55;;;;;;;;;;5093142;28;20415;-69
2022/10/22 01:00:20;;;;;;;4.82;1.75;;;;;;;;;;5092855;28;20028;-69
2022/10/22 01:02:48;;;;;;;4.88;1.67;;;;;;;;;;5093112;28;20016;-70
2022/10/22 01:05:15;;;;;;;11.55;1.17;;;;;;;;;;5092769;28;20028;-70
2022/10/22 01:07:44;;;;;;;8.85;1.70;;;;;;;;;;5092746;28;20023;-69
2022/10/22 01:10:10;;;;;;;5.18;1.48;;;;;;;;;;5091514;28;20384;-70
2022/10/22 01:12:42;;;;;;;4.53;1.50;;;;;;;;;;5092870;28;20026;-70
2022/10/22 01:15:28;;;;;;;4.40;1.40;;;;;;;;;;5092859;28;20036;-70
2022/10/22 01:17:59;;;;;;;3.85;1.60;;;;;;;;;;5092441;28;20024;-69
2022/10/22 01:20:34;;;;;;;2.95;1.38;;;;;;;;;;5092866;28;20387;-69
2022/10/22 01:23:12;;;;;;;5.97;1.50;;;;;;;;;;5092551;28;20024;-69
2022/10/22 01:25:53;;;;;;;5.57;1.48;;;;;;;;;;5092000;28;20030;-70
2022/10/22 01:28:38;;;;;;;3.83;1.23;;;;;;;;;;5092450;28;20383;-70
2022/10/22 01:31:05;;;;;;;8.45;1.75;;;;;;;;;;5092593;28;20016;-69
2022/10/22 01:33:32;;;;;;;5.55;1.35;;;;;;;;;;5092579;28;20028;-70
2022/10/22 01:35:59;;;;;;;3.67;1.10;;;;;;;;;;5092480;28;20484;-70
2022/10/22 01:38:26;;;;;;;9.07;1.52;;;;;;;;;;5091825;28;20028;-70
2022/10/22 01:40:52;;;;;;;10.30;1.38;;;;;;;;;;5092477;28;20404;-70
2022/10/22 01:43:19;;;;;;;10.07;1.40;;;;;;;;;;5092224;28;20480;-69
2022/10/22 01:45:47;;;;;;;4.22;1.27;;;;;;;;;;5072083;28;20035;-70
2022/10/22 01:48:32;;;;;;;8.27;1.40;;;;;;;;;;5072079;28;20085;-70
2022/10/22 01:51:01;;;;;;;3.83;1.35;;;;;;;;;;5075581;28;20059;-69
2022/10/22 01:53:28;;;;;;;5.70;1.20;;;;;;;;;;5091592;28;20027;-69
2022/10/22 01:56:03;;;;;;;4.68;1.30;;;;;;;;;;5092240;28;20499;-69
2022/10/22 01:58:53;;;;;;;3.05;1.20;;;;;;;;;;5092063;28;20035;-69
2022/10/22 02:01:38;;;;;;;4.05;1.08;;;;;;;;;;5086809;28;20036;-70
2022/10/22 02:04:11;;;;;;;13.82;2.10;;;;;;;;;;5092019;28;20388;-70
2022/10/22 02:06:39;;;;;;;3.10;1.10;;;;;;;;;;5092092;28;20026;-70
2022/10/22 02:09:07;;;;;;;3.80;1.10;;;;;;;;;;5091709;28;20032;-70
2022/10/22 02:11:34;;;;;;;7.38;1.30;;;;;;;;;;5092149;28;20024;-70
2022/10/22 02:14:02;;;;;;;6.13;1.20;;;;;;;;;;5091903;28;20054;-69
2022/10/22 02:16:34;;;;;;;10.57;1.13;;;;;;;;;;5090737;28;20582;-69
2022/10/22 02:19:02;;;;;;;3.45;1.02;;;;;;;;;;5090588;28;20028;-69
2022/10/22 02:21:29;;;;;;;4.43;1.13;;;;;;;;;;5093863;28;20016;-69
2022/10/22 02:23:55;;;;;;;11.82;1.40;;;;;;;;;;5095725;28;20025;-69
2022/10/22 02:26:29;;;;;;;7.47;1.48;;;;;;;;;;5096144;28;20017;-70
2022/10/22 02:28:59;;;;;;;4.18;1.20;;;;;;;;;;5095530;28;20020;-69
2022/10/22 02:31:30;;;;;;;5.68;1.40;;;;;;;;;;5095827;28;20024;-70
2022/10/22 02:33:58;;;;;;;8.73;1.17;;;;;;;;;;5094478;28;20384;-69
2022/10/22 02:36:25;;;;;;;5.40;1.73;;;;;;;;;;5095479;28;20016;-70
2022/10/22 02:38:52;;;;;;;10.23;1.40;;;;;;;;;;5094300;28;20046;-69
2022/10/22 02:41:19;;;;;;;3.60;1.60;;;;;;;;;;5095503;28;20534;-70
2022/10/22 02:43:49;;;;;;;6.47;1.63;;;;;;;;;;5095594;28;20034;-69
2022/10/22 02:46:15;;;;;;;4.70;1.50;;;;;;;;;;5095485;28;20380;-69
2022/10/22 02:48:41;;;;;;;4.07;1.70;;;;;;;;;;5095528;28;20020;-69
2022/10/22 02:51:07;;;;;;;5.35;1.67;;;;;;;;;;5095357;28;20023;-69
2022/10/22 02:53:34;;;;;;;7.68;1.90;;;;;;;;;;5095519;28;20028;-69
2022/10/22 02:56:00;;;;;;;6.50;1.70;;;;;;;;;;5095289;28;20023;-70
2022/10/22 02:58:26;;;;;;;4.13;1.52;;;;;;;;;;5094045;28;20032;-70
2022/10/22 03:00:53;;;;;;;5.95;1.52;;;;;;;;;;5095241;28;20032;-69
2022/10/22 03:03:19;;;;;;;5.10;1.40;;;;;;;;;;5094851;28;20100;-70
2022/10/22 03:05:45;;;;;;;4.63;1.38;;;;;;;;;;5094710;28;20084;-70
2022/10/22 03:08:12;;;;;;;11.45;1.58;;;;;;;;;;5095148;28;20031;-70
2022/10/22 03:10:38;;;;;;;5.07;1.75;;;;;;;;;;5094860;28;20030;-70
2022/10/22 03:13:04;;;;;;;6.32;1.63;;;;;;;;;;5094697;28;20101;-70
2022/10/22 03:15:31;;;;;;;5.60;1.60;;;;;;;;;;5094874;28;20050;-69
2022/10/22 03:17:57;;;;;;;4.30;1.45;;;;;;;;;;5095181;28;20028;-69
2022/10/22 03:20:23;;;;;;;4.75;1.33;;;;;;;;;;5094459;28;20036;-69
2022/10/22 03:22:50;;;;;;;3.65;1.40;;;;;;;;;;5094990;28;20031;-69
2022/10/22 03:25:19;;;;;;;7.57;1.77;;;;;;;;;;5094672;28;20020;-69
2022/10/22 03:27:45;;;;;;;6.57;1.70;;;;;;;;;;5094944;28;20187;-69
2022/10/22 03:30:12;;;;;;;6.03;1.40;;;;;;;;;;5093247;28;20480;-69
2022/10/22 03:32:38;;;;;;;5.30;2.10;;;;;;;;;;5093436;28;20034;-69
2022/10/22 03:35:05;;;;;;;2.45;1.58;;;;;;;;;;5094630;28;20027;-69
2022/10/22 03:37:32;;;;;;;2.88;1.60;;;;;;;;;;5094855;28;20027;-69
2022/10/22 03:39:58;;;;;;;3.90;1.42;;;;;;;;;;5094295;28;20036;-69
2022/10/22 03:42:24;;;;;;;12.38;1.77;;;;;;;;;;5094454;28;20438;-69
2022/10/22 03:44:51;;;;;;;6.50;1.63;;;;;;;;;;5094235;28;20028;-69
2022/10/22 03:47:17;;;;;;;3.08;1.50;;;;;;;;;;5094289;28;20026;-69
2022/10/22 03:49:44;;;;;;;6.55;1.88;;;;;;;;;;5093782;28;20028;-69
2022/10/22 03:52:12;;;;;;;5.20;1.80;;;;;;;;;;5094082;28;20024;-69
2022/10/22 03:54:39;;;;;;;7.75;1.85;;;;;;;;;;5094329;28;20036;-69
2022/10/22 03:57:06;;;;;;;8.32;1.58;;;;;;;;;;5094319;28;20020;-69
2022/10/22 03:59:38;;;;;;;4.85;1.60;;;;;;;;;;5094121;28;20043;-69
2022/10/22 04:02:05;;;;;;;6.40;1.67;;;;;;;;;;5093917;28;20481;-69
2022/10/22 04:04:31;;;;;;;4.28;2.15;;;;;;;;;;5093717;28;20473;-69
2022/10/22 04:06:57;;;;;;;7.50;1.92;;;;;;;;;;5093747;28;20028;-69
2022/10/22 04:09:24;;;;;;;5.28;1.83;;;;;;;;;;5094002;28;20408;-69
2022/10/22 04:11:50;;;;;;;6.97;1.60;;;;;;;;;;5093933;28;20480;-69
2022/10/22 04:14:16;;;;;;;7.03;1.83;;;;;;;;;;5093494;28;20512;-69
2022/10/22 04:16:43;;;;;;;5.82;1.50;;;;;;;;;;5093807;28;20026;-69
2022/10/22 04:19:09;;;;;;;6.15;1.48;;;;;;;;;;5093291;28;20450;-69
2022/10/22 04:21:35;;;;;;;7.25;1.60;;;;;;;;;;5093663;28;20028;-69
2022/10/22 04:24:02;;;;;;;4.63;1.40;;;;;;;;;;5093440;28;20017;-69
2022/10/22 04:26:28;;;;;;;5.10;1.80;;;;;;;;;;5093897;28;20032;-69
2022/10/22 04:28:54;;;;;;;7.32;2.00;;;;;;;;;;5093361;28;20461;-69
2022/10/22 04:31:22;;;;;;;4.05;1.77;;;;;;;;;;5093697;28;20042;-69
2022/10/22 04:33:56;;;;;;;3.67;1.70;;;;;;;;;;5093256;28;20028;-69
2022/10/22 04:36:23;;;;;;;4.75;1.50;;;;;;;;;;5093476;28;20016;-69
2022/10/22 04:39:00;;;;;;;11.50;1.92;;;;;;;;;;5093216;28;20028;-69
2022/10/22 04:41:28;;;;;;;5.82;1.75;;;;;;;;;;5093591;28;20024;-69
2022/10/22 04:43:55;;;;;;;5.40;1.65;;;;;;;;;;5092907;28;20020;-69
2022/10/22 04:46:21;;;;;;;11.60;2.00;;;;;;;;;;5093324;28;20024;-69
2022/10/22 04:48:48;;;;;;;6.07;2.15;;;;;;;;;;5092745;28;20065;-69
2022/10/22 04:51:15;;;;;;;6.65;1.90;;;;;;;;;;5092895;28;20380;-69
2022/10/22 04:53:42;;;;;;;11.60;1.90;;;;;;;;;;5093219;28;20032;-69
2022/10/22 04:56:10;;;;;;;3.60;1.88;;;;;;;;;;5092710;28;20024;-69
2022/10/22 04:58:36;;;;;;;6.78;1.83;;;;;;;;;;5093088;28;20024;-68
2022/10/22 05:01:29;;;;;;;10.00;2.05;;;;;;;;;;5092933;28;20032;-69
2022/10/22 05:03:56;;;;;;;5.20;1.63;;;;;;;;;;5093014;28;20028;-69
2022/10/22 05:06:23;;;;;;;9.00;1.65;;;;;;;;;;5113224;28;20028;-69
2022/10/22 05:09:11;;;;;;;5.60;2.13;;;;;;;;;;5113075;28;20016;-69
2022/10/22 05:11:40;;;;;;;3.30;1.38;;;;;;;;;;5113279;28;20019;-69
2022/10/22 05:14:08;;;;;;;3.97;1.63;;;;;;;;;;5112639;28;20043;-69
2022/10/22 05:16:34;;;;;;;4.57;1.55;;;;;;;;;;5112846;28;20026;-69
2022/10/22 05:19:01;;;;;;;8.25;1.73;;;;;;;;;;5112983;28;20032;-69
2022/10/22 05:21:28;;;;;;;7.18;1.30;;;;;;;;;;5112837;28;20032;-69
2022/10/22 05:23:55;;;;;;;4.10;1.50;;;;;;;;;;5112944;28;20028;-69
2022/10/22 05:26:22;;;;;;;2.30;1.35;;;;;;;;;;5112833;28;20488;-68
2022/10/22 05:28:49;;;;;;;3.70;1.45;;;;;;;;;;5112787;28;20020;-69
2022/10/22 05:31:15;;;;;;;12.32;2.55;;;;;;;;;;5112397;28;20054;-69
2022/10/22 05:33:42;;;;;;;5.00;1.48;;;;;;;;;;5112566;28;20478;-69
2022/10/22 05:36:10;;;;;;;8.07;1.58;;;;;;;;;;5113313;28;20038;-69
2022/10/22 05:38:36;;;;;;;3.28;1.65;;;;;;;;;;5113004;28;20034;-69
2022/10/22 05:41:07;;;;;;;5.90;1.45;;;;;;;;;;5112818;28;20039;-69
2022/10/22 05:43:34;;;;;;;4.35;1.38;;;;;;;;;;5110501;28;20213;-69
2022/10/22 05:46:02;;;;;;;7.93;1.48;;;;;;;;;;5091818;28;20035;-69
2022/10/22 05:48:29;;;;;;;4.35;1.70;;;;;;;;;;5091167;28;20025;-69
2022/10/22 05:50:56;;;;;;;8.70;1.65;;;;;;;;;;5091994;28;20366;-68
2022/10/22 05:53:23;;;;;;;7.03;1.65;;;;;;;;;;5092230;28;20034;-69
2022/10/22 05:55:49;;;;;;;5.28;1.40;;;;;;;;;;5093119;28;20026;-69
2022/10/22 05:58:15;;;;;;;6.95;1.40;;;;;;;;;;5096095;28;20054;-68
2022/10/22 06:00:42;;;;;;;16.33;1.83;;;;;;;;;;5095903;28;20085;-69
2022/10/22 06:03:08;;;;;;;5.22;1.70;;;;;;;;;;5096210;28;20028;-69
2022/10/22 06:05:35;;;;;;;4.90;1.42;;;;;;;;;;5096210;28;20042;-69
2022/10/22 06:08:02;;;;;;;3.78;1.50;;;;;;;;;;5096044;28;20026;-71
2022/10/22 06:10:28;;;;;;;4.15;1.88;;;;;;;;;;5096011;28;20034;-69
2022/10/22 06:12:55;;;;;;;14.98;1.60;;;;;;;;;;5096111;28;20034;-71
2022/10/22 06:15:21;;;;;;;7.65;1.65;;;;;;;;;;5095628;28;20020;-69
2022/10/22 06:17:47;;;;;;;7.22;1.65;;;;;;;;;;5096176;28;20088;-69
2022/10/22 06:20:14;;;;;;;6.70;1.75;;;;;;;;;;5095727;28;20024;-69
2022/10/22 06:22:41;;;;;;;4.85;1.80;;;;;;;;;;5095749;28;20497;-69
2022/10/22 06:25:07;;;;;;;8.02;1.40;;;;;;;;;;5096112;28;20027;-69
2022/10/22 06:27:34;;;;;;;6.35;2.03;;;;;;;;;;5095768;28;20020;-68
2022/10/22 06:30:00;;;;;;;4.10;1.48;;;;;;;;;;5103959;28;20023;-69
2022/10/22 06:32:26;;;;;;;6.38;1.20;;;;;;;;;;5115921;28;20460;-69
2022/10/22 06:34:53;;;;;;;6.63;1.85;;;;;;;;;;5115656;28;20028;-69
2022/10/22 06:37:19;;;;;;;6.32;2.22;;;;;;;;;;5116017;28;20024;-69
2022/10/22 06:39:45;;;;;;;6.80;1.80;;;;;;;;;;5115805;28;20043;-69
2022/10/22 06:42:12;;;;;;;9.68;1.98;;;;;;;;;;5096889;28;20388;-69
2022/10/22 06:44:38;;;;;;;5.55;1.73;;;;;;;;;;5095078;28;20028;-69
2022/10/22 06:47:04;;;;;;;7.78;1.75;;;;;;;;;;5095272;28;20020;-69
2022/10/22 06:49:31;;;;;;;7.10;1.40;;;;;;;;;;5093496;28;20538;-69
2022/10/22 06:51:57;;;;;;;7.88;1.85;;;;;;;;;;5095430;28;20016;-69
2022/10/22 06:54:23;;;;;;;8.63;1.80;;;;;;;;;;5095104;28;20032;-69
2022/10/22 06:56:50;;;;;;;5.18;2.42;;;;;;;;;;5095429;28;20024;-68
2022/10/22 06:59:16;;;;;;;7.40;2.20;;;;;;;;;;5094978;28;20020;-69
2022/10/22 07:01:42;;;;;;;3.58;1.63;;;;;;;;;;5094426;28;20388;-68
2022/10/22 07:04:10;;;;;;;4.95;1.60;;;;;;;;;;5094463;28;20027;-69
2022/10/22 07:06:36;;;;;;;7.35;1.90;;;;;;;;;;5094630;28;20204;-69
2022/10/22 07:09:02;;;;;;;9.32;1.58;;;;;;;;;;5094820;28;20032;-69
2022/10/22 07:11:30;;;;;;;2.92;1.60;;;;;;;;;;5094475;28;20477;-69
2022/10/22 07:13:58;;;;;;;4.43;1.30;;;;;;;;;;5094189;28;20419;-69
2022/10/22 07:16:24;;;;;;;3.38;1.20;;;;;;;;;;5093526;28;20039;-69
2022/10/22 07:18:51;;;;;;;5.65;1.50;;;;;;;;;;5094915;28;20024;-69
2022/10/22 07:21:19;;;;;;;8.10;1.60;;;;;;;;;;5095041;28;20481;-69
2022/10/22 07:23:46;;;;;;;8.43;1.70;;;;;;;;;;5095024;28;20487;-69
2022/10/22 07:26:16;;;;;;;4.10;1.25;;;;;;;;;;5095007;28;20108;-69
2022/10/22 07:28:42;;;;;;;7.68;1.30;;;;;;;;;;5095189;28;20493;-69
2022/10/22 07:31:10;;;;;;;3.33;1.33;;;;;;;;;;5094845;28;20035;-69
2022/10/22 07:33:37;;;;;;;9.10;1.77;;;;;;;;;;5094861;28;20036;-69
2022/10/22 07:36:04;;;;;;;5.57;1.38;;;;;;;;;;5095072;28;20491;-69
2022/10/22 07:38:31;;;;;;;8.57;1.63;;;;;;;;;;5094744;28;20081;-69
2022/10/22 07:40:57;;;;;;;7.95;1.33;;;;;;;;;;5094734;28;20024;-69
2022/10/22 07:43:24;;;;;;;3.28;1.25;;;;;;;;;;5094632;28;20028;-68
2022/10/22 07:45:50;;;;;;;8.70;1.52;;;;;;;;;;5094731;28;20030;-68
2022/10/22 07:48:17;;;;;;;7.28;1.38;;;;;;;;;;5094760;28;20024;-70
2022/10/22 07:50:43;;;;;;;7.10;1.38;;;;;;;;;;5094600;28;20030;-69
2022/10/22 07:53:09;;;;;;;5.32;1.27;;;;;;;;;;5094422;28;20077;-69
2022/10/22 07:55:36;;;;;;;3.72;1.33;;;;;;;;;;5094021;28;20034;-69
2022/10/22 07:58:03;;;;;;;8.13;1.52;;;;;;;;;;5094652;28;20023;-69
2022/10/22 08:00:29;;;;;;;2.17;1.25;;;;;;;;;;5094507;28;20040;-69
2022/10/22 08:02:55;;;;;;;5.28;1.70;;;;;;;;;;5094573;28;20384;-69
2022/10/22 08:05:22;;;;;;;4.57;1.27;;;;;;;;;;5094633;28;20024;-69
2022/10/22 08:07:48;;;;;;;4.85;1.40;;;;;;;;;;5094161;28;20024;-69
2022/10/22 08:10:14;;;;;;;9.52;1.50;;;;;;;;;;5093934;28;20032;-69
2022/10/22 08:12:41;;;;;;;5.45;1.30;;;;;;;;;;5093088;28;20032;-69
2022/10/22 08:15:08;;;;;;;4.55;1.38;;;;;;;;;;5094049;28;20396;-69
2022/10/22 08:17:34;;;;;;;5.93;1.33;;;;;;;;;;5094190;28;20038;-69
2022/10/22 08:20:00;;;;;;;5.47;1.30;;;;;;;;;;5093260;28;20386;-69
2022/10/22 08:22:27;;;;;;;10.15;1.63;;;;;;;;;;5094155;28;20024;-69
2022/10/22 08:24:53;;;;;;;3.42;1.30;;;;;;;;;;5093667;28;20020;-69
2022/10/22 08:27:19;;;;;;;2.92;1.10;;;;;;;;;;5093771;28;20042;-69
2022/10/22 08:29:46;;;;;;;6.57;1.38;;;;;;;;;;5093868;28;20024;-69
2022/10/22 08:32:12;;;;;;;5.65;1.30;;;;;;;;;;5093889;28;20020;-70
2022/10/22 08:34:38;;;;;;;8.27;1.45;;;;;;;;;;5093598;28;20032;-69
2022/10/22 08:37:07;;;;;;;13.20;1.52;;;;;;;;;;5092528;28;20039;-69
2022/10/22 08:39:33;;;;;;;3.65;1.30;;;;;;;;;;5093206;28;20055;-69
2022/10/22 08:42:05;;;;;;;7.20;1.65;;;;;;;;;;5093484;28;20024;-70
2022/10/22 08:44:47;;;;;;;9.50;1.38;;;;;;;;;;5093726;28;20031;-70
2022/10/22 08:47:13;;;;;;;4.70;1.50;;;;;;;;;;5093700;28;20031;-69
2022/10/22 08:49:42;;;;;;;6.35;1.70;;;;;;;;;;5093558;28;20046;-69
2022/10/22 08:52:13;;;;;;;6.07;1.50;;;;;;;;;;5093085;28;20511;-70
2022/10/22 08:54:42;;;;;;;11.20;1.42;;;;;;;;;;5093486;28;20048;-69
2022/10/22 08:57:09;;;;;;;5.25;1.45;;;;;;;;;;5093510;28;20026;-70
2022/10/22 08:59:35;;;;;;;6.50;1.20;;;;;;;;;;5093125;28;20028;-70
2022/10/22 09:02:02;;;;;;;12.13;2.00;;;;;;;;;;5093144;28;20376;-70
2022/10/22 09:04:40;;;;;;;5.07;1.30;;;;;;;;;;5093375;28;20027;-70
2022/10/22 09:07:09;;;;;;;5.57;1.38;;;;;;;;;;5093218;28;20044;-69
2022/10/22 09:09:40;;;;;;;2.83;1.15;;;;;;;;;;5092688;28;20031;-70
2022/10/22 09:12:07;;;;;;;9.15;1.40;;;;;;;;;;5093080;28;20039;-70
2022/10/22 09:14:33;;;;;;;5.20;1.45;;;;;;;;;;5092773;28;20057;-70
2022/10/22 09:17:12;;;;;;;10.60;1.55;;;;;;;;;;5092875;28;20020;-70
2022/10/22 09:20:02;;;;;;;8.05;1.35;;;;;;;;;;5092720;28;20040;-70
2022/10/22 09:22:34;;;;;;;5.93;1.20;;;;;;;;;;5092439;28;20032;-70
2022/10/22 09:25:09;;;;;;;5.10;1.40;;;;;;;;;;5093000;28;20030;-70
2022/10/22 09:27:36;;;;;;;5.57;1.50;;;;;;;;;;5093243;28;20020;-69
2022/10/22 09:30:02;;;;;;;3.55;1.42;;;;;;;;;;5092198;28;20473;-70
2022/10/22 09:32:29;;;;;;;4.88;1.35;;;;;;;;;;5092510;28;20020;-70
2022/10/22 09:34:57;;;;;;;2.58;1.15;;;;;;;;;;5092511;28;20028;-70
2022/10/22 09:37:28;;;;;;;5.80;1.40;;;;;;;;;;5092398;28;20016;-70
2022/10/22 09:39:55;;;;;;;7.95;1.63;;;;;;;;;;5092496;28;20040;-70
2022/10/22 09:42:22;;;;;;;2.85;1.38;;;;;;;;;;5092754;28;20028;-70
2022/10/22 09:44:58;;;;;;;2.45;1.20;;;;;;;;;;5092873;28;20046;-70
2022/10/22 09:47:36;;;;;;;4.32;0.90;;;;;;;;;;5092823;28;20024;-70
2022/10/22 09:50:12;;;;;;;4.78;1.10;;;;;;;;;;5092509;28;20028;-70
2022/10/22 09:52:40;;;;;;;8.00;1.52;;;;;;;;;;5091726;28;20045;-70
2022/10/22 09:55:26;;;;;;;6.78;1.50;;;;;;;;;;5092368;28;20553;-70
2022/10/22 09:57:53;;;;;;;5.75;1.02;;;;;;;;;;5092685;28;20035;-70
2022/10/22 10:00:23;;;;;;;4.95;1.08;;;;;;;;;;5092291;28;20493;-70
2022/10/22 10:02:53;;;;;;;6.03;1.92;;;;;;;;;;5092452;28;20362;-70
2022/10/22 10:05:20;;;;;;;3.37;1.10;;;;;;;;;;5092409;28;20024;-70
2022/10/22 10:07:47;;;;;;;8.65;1.50;;;;;;;;;;5092224;28;20020;-70
2022/10/22 10:10:18;;;;;;;6.93;1.20;;;;;;;;;;5092364;28;20412;-70
2022/10/22 10:12:55;;;;;;;7.18;1.05;;;;;;;;;;5092016;28;20024;-70
2022/10/22 10:15:24;;;;;;;5.03;1.25;;;;;;;;;;5092509;28;20034;-70
2022/10/22 10:17:51;;;;;;;4.85;1.08;;;;;;;;;;5092273;28;20508;-70
2022/10/22 10:20:37;;;;;;;3.25;1.23;;;;;;;;;;5091632;28;20055;-69
2022/10/22 10:23:04;;;;;;;2.70;1.10;;;;;;;;;;5092280;28;20031;-70
2022/10/22 10:25:53;;;;;;;4.93;1.10;;;;;;;;;;5090839;28;20026;-70
2022/10/22 10:28:28;;;;;;;6.18;1.20;;;;;;;;;;5092176;28;20036;-70
2022/10/22 10:31:13;;;;;;;4.57;1.20;;;;;;;;;;5092205;28;20396;-70
2022/10/22 10:33:52;;;;;;;3.33;1.00;;;;;;;;;;5092033;28;20028;-70
2022/10/22 10:36:24;;;;;;;4.63;1.10;;;;;;;;;;5091969;28;20396;-70
2022/10/22 10:38:55;;;;;;;2.80;1.05;;;;;;;;;;5092283;28;20032;-70
2022/10/22 10:41:28;;;;;;;3.38;1.13;;;;;;;;;;5090994;28;20026;-70
2022/10/22 10:44:11;;;;;;;5.30;1.20;;;;;;;;;;5095883;28;20028;-70
2022/10/22 10:46:49;;;;;;;4.50;1.02;;;;;;;;;;5095710;28;20020;-70
2022/10/22 10:49:18;;;;;;;3.38;1.30;;;;;;;;;;5095547;28;20028;-69
2022/10/22 10:51:47;;;;;;;3.30;1.00;;;;;;;;;;5095644;28;20088;-70
2022/10/22 10:54:23;;;;;;;4.63;1.02;;;;;;;;;;5095976;28;20020;-70
2022/10/22 10:56:55;;;;;;;5.50;1.10;;;;;;;;;;5095609;28;20487;-70
2022/10/22 10:59:34;;;;;;;3.15;1.40;;;;;;;;;;5095352;28;20032;-69
2022/10/22 11:02:09;;;;;;;6.70;1.30;;;;;;;;;;5095473;28;20403;-70
2022/10/22 11:04:54;;;;;;;9.20;1.40;;;;;;;;;;5095149;28;20024;-70
2022/10/22 11:07:25;;;;;;;3.85;1.42;;;;;;;;;;5095291;28;20024;-70
2022/10/22 11:09:59;;;;;;;3.83;1.20;;;;;;;;;;5095261;28;20437;-70
2022/10/22 11:12:33;;;;;;;5.10;1.10;;;;;;;;;;5095500;28;20032;-71
2022/10/22 11:15:02;;;;;;;5.18;1.40;;;;;;;;;;5095146;28;20501;-70
2022/10/22 11:17:38;;;;;;;5.00;1.30;;;;;;;;;;5095444;28;20024;-70
2022/10/22 11:20:23;;;;;;;3.17;1.38;;;;;;;;;;5094763;28;20042;-69
2022/10/22 11:22:54;;;;;;;7.00;1.60;;;;;;;;;;5095351;28;20028;-69
2022/10/22 11:25:40;;;;;;;6.30;1.42;;;;;;;;;;5095036;28;20016;-70
2022/10/22 11:28:13;;;;;;;4.07;1.20;;;;;;;;;;5095345;28;20072;-69
2022/10/22 11:30:42;;;;;;;7.78;1.38;;;;;;;;;;5095101;28;20031;-70
2022/10/22 11:33:14;;;;;;;3.85;1.20;;;;;;;;;;5094530;28;20020;-70
2022/10/22 11:35:42;;;;;;;3.17;1.35;;;;;;;;;;5094906;28;20016;-70
2022/10/22 11:38:11;;;;;;;1.77;1.00;;;;;;;;;;5095150;28;20027;-70
2022/10/22 11:40:39;;;;;;;4.57;1.50;;;;;;;;;;5094794;28;20038;-70
2022/10/22 11:43:09;;;;;;;5.00;1.70;;;;;;;;;;5094797;28;20026;-70
2022/10/22 11:45:37;;;;;;;1.45;1.10;;;;;;;;;;5094457;28;20020;-70
2022/10/22 11:48:09;;;;;;;3.13;1.55;;;;;;;;;;5094307;28;20024;-70
2022/10/22 11:50:56;;;;;;;5.88;1.40;;;;;;;;;;5094328;28;20027;-70
2022/10/22 11:53:26;;;;;;;4.57;1.15;;;;;;;;;;5093871;28;20031;-70
2022/10/22 11:56:21;;;;;;;7.18;1.42;;;;;;;;;;5094449;28;20034;-70
2022/10/22 11:58:48;;;;;;;5.75;1.52;;;;;;;;;;5094305;28;20485;-70
2022/10/22 12:01:22;;;;;;;6.75;1.60;;;;;;;;;;5093347;28;20038;-70
2022/10/22 12:03:49;;;;;;;6.22;1.40;;;;;;;;;;5093970;28;20016;-70
2022/10/22 12:06:19;;;;;;;4.00;1.40;;;;;;;;;;5094176;28;20024;-69
2022/10/22 12:08:46;;;;;;;;;;;;;;;;;;5094676;28;20465;-70
2022/10/22 12:11:22;;;;;;;6.00;2.05;;;;;;;;;;5094415;28;19911;-71
2022/10/22 12:14:07;;;;;;;5.60;1.98;;;;;;;;;;5094117;28;20077;-70
2022/10/22 12:16:38;;;;;;;7.35;1.92;;;;;;;;;;5094013;28;20046;-70
2022/10/22 12:19:10;;;;;;;8.20;2.17;;;;;;;;;;5094028;28;20077;-70
2022/10/22 12:21:38;;;;;;;4.72;2.00;;;;;;;;;;5093950;28;20038;-71
2022/10/22 12:24:05;;;;;;;10.23;2.33;;;;;;;;;;5094054;28;20469;-70
2022/10/22 12:26:35;;;;;;;8.93;3.10;;;;;;;;;;5094258;28;20032;-70
2022/10/22 12:29:08;;;;;;;7.15;2.50;;;;;;;;;;5092556;28;20024;-69
2022/10/22 12:31:36;;;;;;;9.25;2.30;;;;;;;;;;5093537;28;20429;-70
2022/10/22 12:34:03;;;;;;;7.78;2.47;;;;;;;;;;5093768;28;20465;-70
2022/10/22 12:36:30;;;;;;;8.55;2.50;;;;;;;;;;5093785;28;20023;-70
2022/10/22 12:39:03;;;;;;;6.68;2.05;;;;;;;;;;5093805;28;20028;-69
2022/10/22 12:41:34;;;;;;;13.50;3.00;;;;;;;;;;5093630;28;20084;-71
2022/10/22 12:44:01;;;;;;;8.98;2.70;;;;;;;;;;5093459;28;20012;-71
2022/10/22 12:46:29;;;;;;;6.90;2.10;;;;;;;;;;5093158;28;20027;-70
2022/10/22 12:48:58;;;;;;;8.57;2.40;;;;;;;;;;5093443;28;20024;-70
2022/10/22 12:51:24;;;;;;;6.17;2.27;;;;;;;;;;5093271;28;20023;-70
2022/10/22 12:53:55;;;;;;;10.30;2.60;;;;;;;;;;5093645;28;20032;-70
2022/10/22 12:56:34;;;;;;;7.50;2.10;;;;;;;;;;5093576;28;20030;-70
2022/10/22 12:59:13;;;;;;;8.95;2.15;;;;;;;;;;5093247;28;20028;-70
2022/10/22 13:01:41;;;;;;;9.07;2.78;;;;;;;;;;5093145;28;20020;-70
2022/10/22 13:04:16;;;;;;;8.63;2.55;;;;;;;;;;5093280;28;20020;-70
2022/10/22 13:06:44;;;;;;;7.47;2.30;;;;;;;;;;5093109;28;20038;-70
2022/10/22 13:09:21;;;;;;;5.50;2.42;;;;;;;;;;5093297;28;20028;-70
2022/10/22 13:11:57;;;;;;;9.30;2.40;;;;;;;;;;5093371;28;20016;-70
2022/10/22 13:14:27;;;;;;;7.43;2.15;;;;;;;;;;5092598;28;20048;-69
2022/10/22 13:17:05;;;;;;;8.52;2.55;;;;;;;;;;5092862;28;20054;-70
2022/10/22 13:19:39;;;;;;;7.57;2.15;;;;;;;;;;5092704;28;20028;-70
2022/10/22 13:22:23;;;;;;;9.48;2.60;;;;;;;;;;5092957;28;20035;-69
2022/10/22 13:24:50;;;;;;;8.80;2.42;;;;;;;;;;5092888;28;20504;-70
2022/10/22 13:27:16;;;;;;;12.93;2.72;;;;;;;;;;5093110;28;20034;-70
2022/10/22 13:29:43;;;;;;;11.65;2.47;;;;;;;;;;5092593;28;20020;-70
2022/10/22 13:32:21;;;;;;;10.95;2.60;;;;;;;;;;5092663;28;20388;-70
2022/10/22 13:34:48;;;;;;;6.97;2.30;;;;;;;;;;5092665;28;20016;-70
2022/10/22 13:37:14;;;;;;;7.43;2.40;;;;;;;;;;5092825;28;20028;-70
2022/10/22 13:39:41;;;;;;;8.38;2.55;;;;;;;;;;5092642;28;20392;-70
2022/10/22 13:42:11;;;;;;;8.80;2.88;;;;;;;;;;5092932;28;20092;-70
2022/10/22 13:44:37;;;;;;;7.70;2.47;;;;;;;;;;5092219;28;20031;-70
2022/10/22 13:47:05;;;;;;;7.15;2.70;;;;;;;;;;5092720;28;20043;-70
2022/10/22 13:49:31;;;;;;;7.53;2.15;;;;;;;;;;5092689;28;20030;-70
2022/10/22 13:51:59;;;;;;;10.68;2.70;;;;;;;;;;5092361;28;20477;-70
2022/10/22 13:54:26;;;;;;;12.05;2.90;;;;;;;;;;5092606;28;20027;-70
2022/10/22 13:56:52;;;;;;;9.70;2.60;;;;;;;;;;5092555;28;20481;-69
2022/10/22 13:59:18;;;;;;;9.70;3.20;;;;;;;;;;5090764;28;20042;-70
2022/10/22 14:01:45;;;;;;;7.93;3.15;;;;;;;;;;5092602;28;20492;-70
2022/10/22 14:04:14;;;;;;;6.40;2.67;;;;;;;;;;5092677;28;20024;-70
2022/10/22 14:06:40;;;;;;;10.55;3.10;;;;;;;;;;5092716;28;20021;-70
2022/10/22 14:09:11;;;;;;;6.82;2.92;;;;;;;;;;5092364;28;20016;-69
2022/10/22 14:11:37;;;;;;;8.85;2.65;;;;;;;;;;5092125;28;20034;-69
2022/10/22 14:14:07;;;;;;;8.75;3.05;;;;;;;;;;5091836;28;20048;-70
2022/10/22 14:16:34;;;;;;;8.67;2.70;;;;;;;;;;5109062;28;20030;-70
2022/10/22 14:19:01;;;;;;;9.88;3.15;;;;;;;;;;5112352;28;20077;-70
2022/10/22 14:21:33;;;;;;;9.52;3.20;;;;;;;;;;5096305;28;20418;-69
2022/10/22 14:23:59;;;;;;;10.48;2.80;;;;;;;;;;5096339;28;20020;-69
2022/10/22 14:26:29;;;;;;;9.05;2.95;;;;;;;;;;5096284;28;20027;-70
2022/10/22 14:28:55;;;;;;;12.25;2.90;;;;;;;;;;5096065;28;20034;-70
2022/10/22 14:31:22;;;;;;;10.95;3.08;;;;;;;;;;5096439;28;20024;-69
2022/10/22 14:33:49;;;;;;;9.93;2.70;;;;;;;;;;5096093;28;20473;-70
2022/10/22 14:36:16;;;;;;;11.95;2.90;;;;;;;;;;5096033;28;20042;-70
2022/10/22 14:38:43;;;;;;;9.02;3.13;;;;;;;;;;5095910;28;20028;-70
2022/10/22 14:41:18;;;;;;;14.70;3.08;;;;;;;;;;5095932;28;20036;-69
2022/10/22 14:43:44;;;;;;;12.52;3.30;;;;;;;;;;5095742;28;20068;-69
2022/10/22 14:46:12;;;;;;;9.70;3.58;;;;;;;;;;5095755;28;20036;-69
2022/10/22 14:48:38;;;;;;;10.50;3.80;;;;;;;;;;5095814;28;20031;-69
2022/10/22 14:51:04;;;;;;;10.45;3.50;;;;;;;;;;5095702;28;20020;-69
2022/10/22 14:53:31;;;;;;;14.63;4.25;;;;;;;;;;5095653;28;20039;-69